KBOK/BOK METAR and TAF weather

Enter ICAO airport designator
Station Type Date Time Source
KBOK METAR 2018/12/10 19:38 UTC NOAA

KBOK 101938Z AUTO 00000KT 4SM BR FEW004 SCT013 12/09 A3033 RMK AO2


Station Type Date Time Source
KBOK Decoded METAR 2018/12/10 19:38 UTC NOAA

Brookings, Brookings Airport, OR, United States (KBOK) 42-04-28N 124-17-24W
Dec 10, 2018 - 02:38 PM EST / 2018.12.10 1938 UTC
Wind: Calm:0
Visibility: 4 mile(s):0
Sky conditions: partly cloudy
Weather: mist
Temperature: 53 F (12 C)
Dew Point: 48 F (9 C)
Relative Humidity: 81%
Pressure (altimeter): 30.33 in. Hg (1027 hPa)
ob: KBOK 101938Z AUTO 00000KT 4SM BR FEW004 SCT013 12/09 A3033 RMK AO2
cycle: 19

Station Type Date Time Source
KBOK TAF UTC NOAA

Error!


Example: see airport list